createdAt,value
2018-03-20T00:01:30.320Z,43.61
2018-03-20T00:03:58.110Z,43.79
2018-03-20T00:06:25.802Z,44.02
2018-03-20T00:08:53.474Z,44.47
2018-03-20T00:11:21.224Z,45.38
2018-03-20T00:13:48.875Z,45.63
2018-03-20T00:16:16.622Z,45.80
2018-03-20T00:18:44.295Z,45.61
2018-03-20T00:21:12.022Z,45.17
2018-03-20T00:23:39.702Z,44.84
2018-03-20T00:26:07.366Z,45.00
2018-03-20T00:28:35.052Z,45.37
2018-03-20T00:31:02.708Z,45.05
2018-03-20T00:33:30.612Z,45.42
2018-03-20T00:35:58.261Z,45.68
2018-03-20T00:38:26.094Z,46.24
2018-03-20T00:40:53.762Z,46.53
2018-03-20T00:43:21.468Z,46.65
2018-03-20T00:45:49.169Z,46.58
2018-03-20T00:48:16.866Z,46.49
2018-03-20T00:50:44.551Z,46.56
2018-03-20T00:53:12.202Z,46.74
2018-03-20T00:55:39.898Z,46.98
2018-03-20T00:58:07.562Z,46.86
2018-03-20T01:00:35.264Z,47.55
2018-03-20T01:03:02.917Z,47.91
2018-03-20T01:05:30.615Z,47.66
2018-03-20T01:07:58.274Z,47.76
2018-03-20T01:10:26.090Z,48.00
2018-03-20T01:12:53.770Z,48.28
2018-03-20T01:15:21.458Z,48.22
2018-03-20T01:17:49.118Z,48.54
2018-03-20T01:20:16.806Z,48.58
2018-03-20T01:22:44.474Z,48.22
2018-03-20T01:25:12.228Z,48.04
2018-03-20T01:27:39.839Z,48.21
2018-03-20T01:30:07.610Z,48.29
2018-03-20T01:32:35.275Z,48.30
2018-03-20T01:35:02.958Z,48.56
2018-03-20T01:37:30.621Z,49.11
2018-03-20T01:39:58.315Z,49.23
2018-03-20T01:42:25.979Z,49.55
2018-03-20T01:44:53.755Z,49.41
2018-03-20T01:47:21.461Z,49.71
2018-03-20T01:49:49.137Z,49.79
2018-03-20T01:52:16.838Z,50.25
2018-03-20T01:54:44.566Z,50.58
2018-03-20T01:57:12.341Z,50.99
2018-03-20T01:59:40.034Z,51.44
2018-03-20T02:02:07.704Z,51.28
2018-03-20T02:04:35.403Z,51.22
2018-03-20T02:07:03.086Z,51.07
2018-03-20T02:09:30.770Z,50.78
2018-03-20T02:11:58.435Z,50.75
2018-03-20T02:14:26.238Z,50.31
2018-03-20T02:16:53.899Z,50.77
2018-03-20T02:19:21.655Z,51.20
2018-03-20T02:21:49.343Z,51.60
2018-03-20T02:24:17.034Z,51.58
2018-03-20T02:26:44.706Z,51.42
2018-03-20T02:29:12.401Z,51.54
2018-03-20T02:31:40.062Z,51.62
2018-03-20T02:34:07.749Z,51.42
2018-03-20T02:36:35.416Z,51.12
2018-03-20T02:39:03.091Z,50.84
2018-03-20T02:41:30.900Z,50.80
2018-03-20T02:43:58.591Z,51.14
2018-03-20T02:46:26.246Z,51.04
2018-03-20T02:48:53.930Z,50.94
2018-03-20T02:51:21.598Z,51.41
2018-03-20T02:53:49.296Z,51.84
2018-03-20T02:56:16.972Z,52.34
2018-03-20T02:58:44.661Z,52.85
2018-03-20T03:01:12.315Z,52.82
2018-03-20T03:03:40.035Z,52.78
2018-03-20T03:06:07.711Z,52.83
2018-03-20T03:08:35.397Z,53.30
2018-03-20T03:11:03.034Z,53.58
2018-03-20T03:13:30.726Z,54.40
2018-03-20T03:15:58.394Z,53.56
2018-03-20T03:18:26.202Z,52.12
2018-03-20T03:20:53.872Z,52.34
2018-03-20T03:23:21.627Z,52.74
2018-03-20T03:25:49.279Z,52.68
2018-03-20T03:28:16.958Z,53.11
2018-03-20T03:30:44.642Z,53.64
2018-03-20T03:33:12.475Z,53.87
2018-03-20T03:35:40.151Z,54.21
2018-03-20T03:38:07.854Z,55.19
2018-03-20T03:40:35.503Z,56.17
2018-03-20T03:43:03.234Z,56.39
2018-03-20T03:45:30.897Z,56.76
2018-03-20T03:47:58.610Z,57.60
2018-03-20T03:50:26.303Z,58.19
2018-03-20T03:52:54.062Z,58.67
2018-03-20T03:55:21.718Z,58.77
2018-03-20T03:57:49.410Z,58.01
2018-03-20T04:00:17.206Z,58.73
2018-03-20T04:02:44.895Z,59.26
2018-03-20T04:05:12.617Z,59.73
2018-03-20T04:07:40.303Z,59.77
2018-03-20T04:10:07.958Z,59.82
2018-03-20T04:12:35.685Z,59.59
2018-03-20T04:15:03.385Z,59.59
2018-03-20T04:17:31.046Z,60.27
2018-03-20T04:19:58.730Z,60.25
2018-03-20T04:22:26.394Z,60.49
2018-03-20T04:24:54.067Z,60.87
2018-03-20T04:27:21.727Z,61.06
2018-03-20T04:29:49.442Z,61.30
2018-03-20T04:32:17.231Z,61.42
2018-03-20T04:34:44.910Z,61.39
2018-03-20T04:37:12.566Z,61.63
2018-03-20T04:39:40.248Z,61.79
2018-03-20T04:42:07.909Z,61.99
2018-03-20T04:44:35.591Z,62.15
2018-03-20T04:47:03.256Z,62.25
2018-03-20T04:49:31.006Z,61.84
2018-03-20T04:51:58.670Z,61.49
2018-03-20T04:54:26.376Z,61.20
2018-03-20T04:56:54.035Z,61.17
2018-03-20T04:59:21.814Z,61.46
2018-03-20T05:01:49.491Z,61.40
2018-03-20T05:04:17.209Z,61.87
2018-03-20T05:06:44.888Z,62.75
2018-03-20T05:09:12.655Z,63.13
2018-03-20T05:11:40.364Z,63.77
2018-03-20T05:14:08.162Z,64.07
2018-03-20T05:16:35.839Z,63.94
2018-03-20T05:19:03.522Z,64.46
2018-03-20T05:24:27.810Z,67.22
2018-03-20T05:26:55.474Z,68.17
2018-03-20T05:29:23.157Z,69.87
2018-03-20T05:31:50.815Z,70.54
2018-03-20T05:34:18.534Z,70.90
2018-03-20T05:36:46.199Z,72.85
2018-03-20T05:39:13.986Z,72.92
2018-03-20T05:41:41.705Z,71.65
2018-03-20T05:44:09.414Z,71.87
2018-03-20T05:49:53.335Z,74.74
2018-03-20T05:52:21.004Z,75.60
2018-03-20T05:54:48.713Z,76.03
2018-03-20T05:57:16.379Z,76.41
2018-03-20T05:59:44.074Z,77.23
2018-03-20T06:02:11.819Z,79.27
2018-03-20T06:04:39.502Z,81.19
2018-03-20T06:07:07.182Z,82.62
2018-03-20T06:09:34.894Z,83.34
2018-03-20T06:12:02.564Z,84.19
2018-03-20T06:14:30.275Z,84.86
2018-03-20T06:16:57.952Z,85.05
2018-03-20T06:19:25.664Z,85.00
2018-03-20T06:21:53.374Z,85.16
2018-03-20T06:24:21.083Z,85.52
2018-03-20T06:26:48.754Z,85.52
2018-03-20T06:29:16.474Z,85.81
2018-03-20T06:31:44.274Z,86.21
2018-03-20T06:34:11.994Z,86.93
2018-03-20T06:36:39.707Z,87.36
2018-03-20T06:39:07.423Z,87.86
2018-03-20T06:41:35.086Z,88.01
2018-03-20T06:44:02.810Z,88.69
2018-03-20T06:46:30.567Z,89.24
2018-03-20T06:48:58.270Z,89.39
2018-03-20T06:51:26.058Z,89.04
2018-03-20T06:53:54.003Z,88.74
2018-03-20T06:56:21.675Z,88.62
2018-03-20T06:58:49.382Z,88.30
2018-03-20T07:01:17.062Z,88.60
2018-03-20T07:03:44.796Z,88.47
2018-03-20T07:06:12.563Z,88.19
2018-03-20T07:08:40.271Z,88.30
2018-03-20T07:11:08.007Z,88.35
2018-03-20T07:13:35.769Z,88.26
2018-03-20T07:16:03.431Z,87.96
2018-03-20T07:18:31.166Z,88.06
2018-03-20T07:20:58.857Z,88.39
2018-03-20T07:23:26.615Z,88.26
2018-03-20T07:25:54.322Z,88.22
2018-03-20T07:28:22.002Z,88.18
2018-03-20T07:30:49.818Z,88.65
2018-03-20T07:33:17.522Z,88.99
2018-03-20T07:35:45.205Z,89.34
2018-03-20T07:38:12.871Z,89.43
2018-03-20T07:40:40.586Z,89.31
2018-03-20T07:43:08.282Z,89.44
2018-03-20T07:45:36.137Z,89.65
2018-03-20T07:48:03.855Z,90.05
2018-03-20T07:50:31.579Z,90.49
2018-03-20T07:52:59.338Z,90.71
2018-03-20T07:55:27.039Z,91.18
2018-03-20T07:57:54.709Z,91.56
2018-03-20T08:00:22.438Z,91.74
2018-03-20T08:02:50.125Z,91.76
2018-03-20T08:05:17.842Z,92.06
2018-03-20T08:07:45.546Z,92.51
2018-03-20T08:10:13.272Z,92.76
2018-03-20T08:12:40.962Z,93.05
2018-03-20T08:15:08.699Z,93.41
2018-03-20T08:17:36.430Z,93.92
2018-03-20T08:20:04.138Z,94.28
2018-03-20T08:22:31.827Z,94.31
2018-03-20T08:24:59.534Z,94.36
2018-03-20T08:27:27.203Z,94.50
2018-03-20T08:29:54.898Z,94.41
2018-03-20T08:32:22.576Z,94.42
2018-03-20T08:34:50.486Z,94.40
2018-03-20T08:37:18.152Z,94.03
2018-03-20T08:39:45.891Z,93.98
2018-03-20T08:42:13.555Z,94.10
2018-03-20T08:44:41.338Z,94.13
2018-03-20T08:47:09.019Z,94.02
2018-03-20T08:49:36.721Z,93.88
2018-03-20T08:52:04.421Z,93.54
2018-03-20T08:54:32.158Z,93.22
2018-03-20T08:56:59.833Z,93.06
2018-03-20T08:59:27.535Z,93.27
2018-03-20T09:01:55.217Z,93.76
2018-03-20T09:04:22.938Z,93.93
2018-03-20T09:06:50.674Z,93.87
2018-03-20T09:09:18.379Z,93.87
2018-03-20T09:11:46.118Z,93.88
2018-03-20T09:14:13.846Z,93.68
2018-03-20T09:16:41.519Z,93.67
2018-03-20T09:19:09.237Z,93.48
2018-03-20T09:21:36.989Z,93.15
2018-03-20T09:24:04.694Z,92.76
2018-03-20T09:26:32.377Z,92.35
2018-03-20T09:29:00.074Z,92.69
2018-03-20T09:31:27.758Z,92.88
2018-03-20T09:33:55.467Z,92.72
2018-03-20T09:36:23.142Z,92.91
2018-03-20T09:38:50.872Z,92.16
2018-03-20T09:41:18.542Z,92.32
2018-03-20T09:43:46.272Z,91.71
2018-03-20T09:46:13.965Z,92.22
2018-03-20T09:48:41.693Z,92.44
2018-03-20T09:51:09.339Z,90.89
2018-03-20T09:53:37.066Z,90.82
2018-03-20T09:56:04.742Z,88.00
2018-03-20T09:58:32.455Z,87.68
2018-03-20T10:01:00.145Z,86.97
2018-03-20T10:03:27.857Z,86.85
2018-03-20T10:05:55.505Z,86.39
2018-03-20T10:08:23.183Z,84.90
2018-03-20T10:10:50.798Z,84.51
2018-03-20T10:13:18.427Z,84.47
2018-03-20T10:15:46.009Z,84.16
2018-03-20T10:18:13.660Z,82.57
2018-03-20T10:20:41.263Z,82.62
2018-03-20T10:23:08.887Z,81.08
2018-03-20T10:25:36.474Z,81.39
2018-03-20T10:28:04.270Z,78.12
2018-03-20T10:30:31.862Z,77.51
2018-03-20T10:32:59.506Z,75.02
2018-03-20T10:35:27.121Z,75.03
2018-03-20T10:37:54.713Z,72.41
2018-03-20T10:40:22.332Z,74.23
2018-03-20T10:42:49.923Z,69.57
2018-03-20T10:45:17.530Z,67.60
2018-03-20T10:47:45.127Z,66.81
2018-03-20T10:50:12.734Z,65.90
2018-03-20T10:52:40.331Z,64.95
2018-03-20T10:55:08.176Z,60.81
2018-03-20T10:57:35.823Z,59.11
2018-03-20T11:00:03.453Z,57.45
2018-03-20T11:02:31.788Z,54.99
2018-03-20T11:04:59.375Z,52.40
2018-03-20T11:07:27.014Z,52.44
2018-03-20T11:09:54.667Z,52.82
2018-03-20T11:12:22.287Z,53.21
2018-03-20T11:14:49.878Z,51.25
2018-03-20T11:17:17.602Z,49.10
2018-03-20T11:19:45.211Z,48.20
2018-03-20T11:22:12.798Z,48.29
2018-03-20T11:24:40.428Z,46.41
2018-03-20T11:27:08.030Z,48.26
2018-03-20T11:29:35.702Z,50.53
2018-03-20T11:32:03.367Z,46.37
2018-03-20T11:34:30.954Z,45.11
2018-03-20T11:36:58.579Z,44.09
2018-03-20T11:39:26.215Z,44.74
2018-03-20T11:41:53.839Z,45.01
2018-03-20T11:44:21.667Z,42.67
2018-03-20T11:46:49.279Z,43.15
2018-03-20T11:49:16.930Z,41.05
2018-03-20T11:51:44.545Z,41.99
2018-03-20T11:54:12.433Z,40.27
2018-03-20T11:56:40.068Z,38.94
2018-03-20T11:59:07.673Z,38.38
2018-03-20T12:01:35.308Z,40.46
2018-03-20T12:04:02.906Z,38.97
2018-03-20T12:06:30.710Z,37.08
2018-03-20T12:12:03.967Z,36.43
2018-03-20T12:14:31.622Z,37.89
2018-03-20T12:16:59.244Z,36.89
2018-03-20T12:19:26.854Z,35.30
2018-03-20T12:21:54.478Z,34.31
2018-03-20T12:24:22.183Z,34.27
2018-03-20T12:26:49.821Z,34.33
2018-03-20T12:29:17.418Z,35.33
2018-03-20T12:31:45.050Z,35.24
2018-03-20T12:34:12.651Z,34.31
2018-03-20T12:36:40.268Z,35.15
2018-03-20T12:39:08.067Z,33.46
2018-03-20T12:41:35.810Z,33.22
2018-03-20T12:44:03.455Z,32.68
2018-03-20T12:46:31.055Z,31.30
2018-03-20T12:48:58.817Z,31.74
2018-03-20T12:51:26.416Z,32.44
2018-03-20T12:53:54.027Z,31.17
2018-03-20T12:56:21.654Z,30.58
2018-03-20T12:58:49.291Z,31.09
2018-03-20T13:01:16.891Z,29.98
2018-03-20T13:03:44.513Z,29.38
2018-03-20T13:06:12.112Z,30.18
2018-03-20T13:08:39.905Z,29.06
2018-03-20T13:11:07.506Z,29.21
2018-03-20T13:13:35.136Z,28.04
2018-03-20T13:16:02.822Z,28.35
2018-03-20T13:18:30.448Z,28.62
2018-03-20T13:20:58.047Z,28.09
2018-03-20T13:23:25.709Z,28.17
2018-03-20T13:25:53.332Z,27.91
2018-03-20T13:28:20.954Z,27.93
2018-03-20T13:30:48.581Z,26.24
2018-03-20T13:33:16.203Z,25.98
2018-03-20T13:35:43.807Z,26.24
2018-03-20T13:38:11.436Z,25.83
2018-03-20T13:40:39.043Z,26.59
2018-03-20T13:43:06.673Z,27.37
2018-03-20T13:45:34.275Z,27.00
2018-03-20T13:48:01.907Z,26.85
2018-03-20T13:50:29.525Z,25.50
2018-03-20T13:52:57.247Z,24.92
2018-03-20T13:55:24.881Z,25.70
2018-03-20T13:57:52.518Z,24.78
2018-03-20T14:00:20.135Z,24.32
2018-03-20T14:02:47.766Z,25.36
2018-03-20T14:05:15.414Z,25.89
2018-03-20T14:07:43.048Z,25.12
2018-03-20T14:10:10.832Z,25.65
2018-03-20T14:12:38.454Z,25.31
2018-03-20T14:15:06.074Z,24.67
2018-03-20T14:17:33.770Z,24.89
2018-03-20T14:20:01.433Z,24.08
2018-03-20T14:22:29.076Z,25.49
2018-03-20T14:24:56.687Z,24.72
2018-03-20T14:27:24.330Z,25.32
2018-03-20T14:29:51.931Z,25.65
2018-03-20T14:32:19.556Z,24.29
2018-03-20T14:34:47.168Z,25.12
2018-03-20T14:37:14.804Z,24.24
2018-03-20T14:39:42.410Z,24.74
2018-03-20T14:42:10.058Z,25.36
2018-03-20T14:44:37.669Z,25.20
2018-03-20T14:47:05.359Z,25.86
2018-03-20T14:49:32.959Z,26.83
2018-03-20T14:52:00.614Z,25.47
2018-03-20T14:54:28.217Z,24.96
2018-03-20T14:56:55.842Z,24.56
2018-03-20T14:59:23.460Z,24.33
2018-03-20T15:01:51.148Z,23.54
2018-03-20T15:04:18.735Z,23.96
2018-03-20T15:06:46.495Z,23.86
2018-03-20T15:09:14.219Z,25.41
2018-03-20T15:11:41.854Z,24.11
2018-03-20T15:14:09.466Z,25.43
2018-03-20T15:16:37.104Z,25.35
2018-03-20T15:19:04.719Z,24.16
2018-03-20T15:21:32.355Z,24.14
2018-03-20T15:23:59.959Z,24.97
2018-03-20T15:26:27.739Z,24.51
2018-03-20T15:28:55.395Z,24.37
2018-03-20T15:31:23.059Z,24.44
2018-03-20T15:33:50.685Z,24.26
2018-03-20T15:36:18.307Z,24.54
2018-03-20T15:38:45.972Z,25.18
2018-03-20T15:41:13.641Z,23.37
2018-03-20T15:43:41.330Z,23.86
2018-03-20T15:46:08.976Z,24.59
2018-03-20T15:48:36.606Z,24.33
2018-03-20T15:51:04.240Z,21.96
2018-03-20T15:53:31.855Z,21.20
2018-03-20T15:55:59.522Z,21.14
2018-03-20T15:58:27.143Z,21.52
2018-03-20T16:00:54.745Z,22.25
2018-03-20T16:03:22.494Z,22.36
2018-03-20T16:05:50.137Z,22.32
2018-03-20T16:08:17.710Z,22.82
2018-03-20T16:10:45.398Z,21.38
2018-03-20T16:13:13.008Z,21.26
2018-03-20T16:15:40.611Z,21.18
2018-03-20T16:18:08.390Z,21.26
2018-03-20T16:20:36.055Z,21.71
2018-03-20T16:23:03.691Z,21.50
2018-03-20T16:25:31.343Z,22.21
2018-03-20T16:27:58.932Z,21.91
2018-03-20T16:30:26.631Z,22.02
2018-03-20T16:32:54.313Z,22.33
2018-03-20T16:35:22.150Z,22.40
2018-03-20T16:37:49.867Z,22.61
2018-03-20T16:40:17.531Z,22.62
2018-03-20T16:42:45.138Z,23.35
2018-03-20T16:45:12.765Z,22.91
2018-03-20T16:47:40.550Z,23.70
2018-03-20T16:50:08.201Z,24.04
2018-03-20T16:52:35.810Z,23.49
2018-03-20T16:55:03.454Z,23.07
2018-03-20T16:57:31.137Z,23.04
2018-03-20T16:59:58.850Z,23.05
2018-03-20T17:02:26.522Z,23.47
2018-03-20T17:04:54.309Z,23.88
2018-03-20T17:07:21.867Z,24.01
2018-03-20T17:09:49.511Z,23.95
2018-03-20T17:12:17.132Z,24.27
2018-03-20T17:14:44.716Z,24.21
2018-03-20T17:17:12.332Z,24.69
2018-03-20T17:19:39.927Z,24.63
2018-03-20T17:22:07.574Z,25.34
2018-03-20T17:24:35.158Z,25.06
2018-03-20T17:27:02.777Z,25.52
2018-03-20T17:29:30.379Z,26.24
2018-03-20T17:31:58.015Z,26.07
2018-03-20T17:34:25.700Z,26.44
2018-03-20T17:36:53.361Z,26.46
2018-03-20T17:39:20.972Z,26.62
2018-03-20T17:41:48.586Z,27.23
2018-03-20T17:44:16.193Z,27.49
2018-03-20T17:46:43.826Z,27.77
2018-03-20T17:49:11.435Z,27.82
2018-03-20T17:51:39.094Z,28.07
2018-03-20T17:54:06.713Z,28.35
2018-03-20T17:56:34.493Z,28.48
2018-03-20T17:59:02.090Z,28.76
2018-03-20T18:01:29.718Z,28.75
2018-03-20T18:03:57.332Z,29.15
2018-03-20T18:06:24.966Z,29.36
2018-03-20T18:08:52.577Z,29.39
2018-03-20T18:11:20.402Z,29.50
2018-03-20T18:13:48.076Z,29.26
2018-03-20T18:16:15.696Z,29.99
2018-03-20T18:18:43.305Z,30.02
2018-03-20T18:21:10.939Z,29.96
2018-03-20T18:23:38.606Z,30.19
2018-03-20T18:26:06.273Z,30.44
2018-03-20T18:28:33.910Z,30.75
2018-03-20T18:31:01.498Z,30.34
2018-03-20T18:33:29.115Z,30.03
2018-03-20T18:35:56.758Z,30.19
2018-03-20T18:38:24.395Z,29.80
2018-03-20T18:40:52.010Z,30.33
2018-03-20T18:43:19.630Z,30.21
2018-03-20T18:45:47.263Z,29.74
2018-03-20T18:48:14.956Z,30.21
2018-03-20T18:50:42.733Z,30.76
2018-03-20T18:53:10.340Z,30.48
2018-03-20T18:55:37.983Z,30.77
2018-03-20T18:58:05.595Z,30.61
2018-03-20T19:00:33.198Z,30.67
2018-03-20T19:03:00.823Z,31.15
2018-03-20T19:05:28.453Z,30.46
2018-03-20T19:07:56.071Z,30.32
2018-03-20T19:10:23.792Z,31.73
2018-03-20T19:12:51.404Z,30.77
2018-03-20T19:15:19.031Z,30.97
2018-03-20T19:17:46.600Z,31.40
2018-03-20T19:20:14.397Z,31.68
2018-03-20T19:22:41.961Z,31.62
2018-03-20T19:25:09.674Z,31.57
2018-03-20T19:27:37.287Z,31.57
2018-03-20T19:30:04.915Z,31.26
2018-03-20T19:32:32.515Z,31.30
2018-03-20T19:35:00.335Z,31.33
2018-03-20T19:37:27.927Z,31.95
2018-03-20T19:39:55.575Z,32.11
2018-03-20T19:42:23.203Z,33.04
2018-03-20T19:44:50.827Z,33.50
2018-03-20T19:47:18.635Z,34.07
2018-03-20T19:49:46.234Z,34.28
2018-03-20T19:52:13.884Z,34.93
2018-03-20T19:54:41.671Z,34.90
2018-03-20T19:57:09.320Z,35.31
2018-03-20T19:59:36.914Z,35.18
2018-03-20T20:02:04.568Z,35.94
2018-03-20T20:04:32.159Z,36.29
2018-03-20T20:06:59.766Z,36.66
2018-03-20T20:09:27.414Z,37.15
2018-03-20T20:11:55.007Z,37.24
2018-03-20T20:14:22.647Z,37.81
2018-03-20T20:16:50.251Z,37.89
2018-03-20T20:19:17.883Z,37.92
2018-03-20T20:21:45.682Z,38.04
2018-03-20T20:24:13.290Z,38.80
2018-03-20T20:26:40.882Z,39.81
2018-03-20T20:29:08.566Z,40.48
2018-03-20T20:31:36.171Z,41.23
2018-03-20T20:34:03.791Z,41.97
2018-03-20T20:36:31.396Z,42.40
2018-03-20T20:38:59.077Z,42.43
2018-03-20T20:41:26.696Z,42.62
2018-03-20T20:43:54.331Z,42.72
2018-03-20T20:46:21.926Z,42.23
2018-03-20T20:48:49.559Z,42.43
2018-03-20T20:51:17.151Z,42.62
2018-03-20T20:53:44.766Z,42.65
2018-03-20T20:56:12.361Z,42.97
2018-03-20T20:58:40.051Z,43.13
2018-03-20T21:01:07.635Z,43.21
2018-03-20T21:03:35.308Z,43.13
2018-03-20T21:06:02.934Z,43.19
2018-03-20T21:08:30.577Z,43.25
2018-03-20T21:10:58.148Z,43.33
2018-03-20T21:13:25.777Z,43.22
2018-03-20T21:15:53.421Z,43.36
2018-03-20T21:18:21.016Z,43.51
2018-03-20T21:20:48.650Z,43.69
2018-03-20T21:23:16.393Z,43.74
2018-03-20T21:25:44.087Z,44.03
2018-03-20T21:28:11.682Z,44.21
2018-03-20T21:30:39.295Z,44.25
2018-03-20T21:33:06.911Z,44.95
2018-03-20T21:35:34.539Z,45.62
2018-03-20T21:38:02.134Z,45.86
2018-03-20T21:40:29.778Z,46.20
2018-03-20T21:42:57.399Z,46.42
2018-03-20T21:45:25.030Z,46.09
2018-03-20T21:47:52.665Z,45.89
2018-03-20T21:50:20.349Z,46.33
2018-03-20T21:52:47.963Z,46.35
2018-03-20T21:55:15.594Z,46.53
2018-03-20T21:57:43.208Z,49.83
2018-03-20T22:00:10.851Z,47.38
2018-03-20T22:02:38.459Z,47.28
2018-03-20T22:05:06.109Z,48.21
2018-03-20T22:07:33.722Z,48.69
2018-03-20T22:10:01.353Z,49.23
2018-03-20T22:12:29.083Z,49.74
2018-03-20T22:14:56.722Z,50.08
2018-03-20T22:17:24.506Z,49.95
2018-03-20T22:19:52.144Z,50.03
2018-03-20T22:22:19.727Z,50.27
2018-03-20T22:24:47.447Z,50.31
2018-03-20T22:27:15.038Z,50.32
2018-03-20T22:29:42.774Z,50.49
2018-03-20T22:32:10.360Z,50.34
2018-03-20T22:34:37.979Z,50.60
2018-03-20T22:37:05.623Z,50.39
2018-03-20T22:39:33.258Z,51.02
2018-03-20T22:42:00.858Z,51.00
2018-03-20T22:44:28.477Z,51.22
2018-03-20T22:46:56.095Z,51.56
2018-03-20T22:49:23.761Z,52.09
2018-03-20T22:51:51.406Z,52.30
2018-03-20T22:54:18.994Z,52.57
2018-03-20T22:56:46.641Z,52.74
2018-03-20T22:59:14.266Z,52.86
2018-03-20T23:01:41.894Z,52.94
2018-03-20T23:04:09.489Z,53.10
2018-03-20T23:06:37.153Z,52.83
2018-03-20T23:09:04.737Z,52.96
2018-03-20T23:11:32.374Z,53.31
2018-03-20T23:13:59.947Z,53.62
2018-03-20T23:16:27.593Z,54.03
2018-03-20T23:18:55.195Z,54.31
2018-03-20T23:21:22.821Z,54.73
2018-03-20T23:23:50.625Z,55.08
2018-03-20T23:26:18.245Z,55.58
2018-03-20T23:28:45.877Z,55.75
2018-03-20T23:31:13.515Z,55.89
2018-03-20T23:33:41.094Z,55.73
2018-03-20T23:36:08.871Z,55.55
2018-03-20T23:38:36.469Z,55.37
2018-03-20T23:41:04.085Z,55.42
2018-03-20T23:43:31.679Z,55.36
2018-03-20T23:45:59.294Z,55.31
2018-03-20T23:48:26.899Z,54.92
2018-03-20T23:50:54.527Z,55.40
2018-03-20T23:53:22.120Z,55.64
2018-03-20T23:55:49.736Z,56.16
2018-03-20T23:58:17.331Z,56.85
